Nearby METAR Reports

 

KICL - Clarinda, Iowa, USA
Distance from station: N 49mi, 79km
Updated: Wed, 18-Jul-2018 9:15am CDT
Overcast
Overcast
 Wind from calm
Wind: Calm
Temperature: 73°F , 23°C
Dew Point: 68°F , 20°C
Humidity: 83%
Barometer: 30.08 inHg , 1018.6 hPa
Clouds: Overcast
Visibility: 10 miles , 16 km
Cloud details: Partly cloudy 7000 ft
Overcast 8000 ft
2018/07/18 14:15 KICL 181415Z AUTO 00000KT 10SM SCT070 OVC080 23/20 A3008 RMK AO2
KDSM - Des Moines, Iowa, USA
Distance from station: NNE 122mi, 196km
Updated: Wed, 18-Jul-2018 8:54am CDT
Mostly cloudy
Mostly cloudy
 Wind from SE
Wind: SE 6 mph , 9 km/h
Temperature: 75°F , 24°C
Dew Point: 64°F , 18°C
Humidity: 69%
Barometer: 30.08 inHg , 1018.6 hPa
Clouds: Mostly cloudy
Visibility: 10 miles , 16 km
Cloud details: Partly cloudy 7500 ft
Partly cloudy 14000 ft
Mostly cloudy 26000 ft
2018/07/18 13:54 KDSM 181354Z 14005KT 10SM SCT075 SCT140 BKN260 24/18 A3008 RMK AO2 SLP176 T02390183
KFNB - Falls City, Nebraska, USA
Distance from station: W 50mi, 80km
Updated: Wed, 18-Jul-2018 8:53am CDT
Overcast
Overcast
 Wind from NE
Wind: NE 5 mph , 7 km/h
Temperature: 72°F , 22°C
Dew Point: 68°F , 20°C
Humidity: 88%
Barometer: 30.03 inHg , 1016.9 hPa
Clouds: Overcast
Visibility: 10 miles , 16 km
Cloud details: Partly cloudy 5500 ft
Mostly cloudy 7500 ft
Overcast 8500 ft
2018/07/18 13:53 KFNB 181353Z AUTO 05004KT 10SM SCT055 BKN075 OVC085 22/20 A3003 RMK AO2 SLP162 T02220200
 
KMCI - Kansas City, Missouri, USA
Distance from station: S 65mi, 104km
Updated: Wed, 18-Jul-2018 8:53am CDT
Heavy rain, Fog, Overcast
Heavy rain, Fog, Overcast
 Wind from E
Wind: E 6 mph , 9 km/h
Temperature: 70°F , 21°C
Dew Point: 70°F , 21°C
Humidity: 100%
Barometer: 30.04 inHg , 1017.3 hPa
Summary: Heavy rain, Fog
Clouds: Overcast
Visibility: 1/2 mile , 0.8 km
Cloud details: Few Clouds 1700 ft
Mostly cloudy 2600 ft
Overcast 3000 ft
2018/07/18 13:53 KMCI 181353Z 08005KT 1/2SM R19R/3500V4000FT +RA FG FEW017 BKN026 OVC030 21/21 A3004 RMK AO2 SLP162 P0112 T02110206 $
KOMA - Omaha, Nebraska, USA
Distance from station: NNW 105mi, 169km
Updated: Wed, 18-Jul-2018 8:52am CDT
Partly cloudy
Partly cloudy
 Wind from ESE
Wind: ESE 5 mph , 7 km/h
Temperature: 73°F , 23°C
Dew Point: 64°F , 18°C
Humidity: 74%
Barometer: 30.06 inHg , 1017.9 hPa
Clouds: Partly cloudy
Visibility: 10 miles , 16 km
Cloud details: Partly cloudy 7000 ft
Partly cloudy 10000 ft
2018/07/18 13:52 KOMA 181352Z 11004KT 10SM SCT070 SCT100 23/18 A3006 RMK AO2 SLP172 T02330183
KRDK - Red Oak, Iowa, USA
Distance from station: N 70mi, 112km
Updated: Wed, 18-Jul-2018 9:15am CDT
Overcast
Overcast
 Wind from SE
Wind: SE 7 mph , 11 km/h
Temperature: 77°F , 25°C
Dew Point: 68°F , 20°C
Humidity: 74%
Barometer: 30.07 inHg , 1018.3 hPa
Clouds: Overcast
Visibility: 10 miles , 16 km
Cloud details: Overcast 7500 ft
2018/07/18 14:15 KRDK 181415Z AUTO 13006KT 10SM OVC075 25/20 A3007 RMK AO2
 
KSTJ - Saint Joseph, Missouri, USA
Distance from station: SW 23mi, 37km
Updated: Wed, 18-Jul-2018 9:17am CDT
Overcast
Overcast
 Wind from ENE
Wind: ENE 7 mph , 11 km/h
Temperature: 73°F , 23°C
Dew Point: 70°F , 21°C
Humidity: 89%
Barometer: 30.04 inHg , 1017.3 hPa
Clouds: Overcast
Visibility: 10 miles , 16 km
Cloud details: Mostly cloudy 2100 ft
Mostly cloudy 3000 ft
Overcast 9000 ft
2018/07/18 14:17 KSTJ 181417Z 07006KT 10SM BKN021 BKN030 OVC090 23/21 A3004 RMK AO2 T02280206
KTOP - Topeka, Kansas, USA
Distance from station: SW 85mi, 137km
Updated: Wed, 18-Jul-2018 8:53am CDT
Overcast
Overcast
 Wind from ENE
Wind: ENE 7 mph , 11 km/h
Temperature: 77°F , 25°C
Dew Point: 72°F , 22°C
Humidity: 83%
Barometer: 30.01 inHg , 1016.3 hPa
Clouds: Overcast
Visibility: 10 miles , 16 km
Cloud details: Overcast 1600 ft
2018/07/18 13:53 KTOP 181353Z 06006KT 10SM OVC016 25/22 A3001 RMK AO2 SLP152 T02500217
KICT - Wichita, Kansas, USA
Distance from station: SW 215mi, 346km
Updated: Wed, 18-Jul-2018 8:53am CDT
Mostly cloudy
Mostly cloudy
 Wind from NE
Wind: NE 3 mph , 6 km/h
Temperature: 79°F , 26°C
Dew Point: 73°F , 23°C
Humidity: 84%
Barometer: 29.98 inHg , 1015.2 hPa
Clouds: Mostly cloudy
Visibility: 10 miles , 16 km
Cloud details: Few Clouds 9000 ft
Few Clouds 12000 ft
Partly cloudy 18000 ft
Mostly cloudy 25000 ft
2018/07/18 13:53 KICT 181353Z 04003KT 10SM FEW090 FEW120 SCT180 BKN250 26/23 A2998 RMK AO2 SLP137 ACC S-W T02560228